Archiv-/Tagesdaten

--Timestamp---	Temp	Chill	HIndex	Humid	Dewpt	 Wind 	HiWind	WindDir	Rain 	Barom	Solar	 ET  	 UV 
--------------	----	-----	------	-----	-----	------	------	-------	-----	-----	-----	-----	----
20101203 00:00	-8.0	-8.0	-8.0	90	-9.3	0	3	135	0.0	1009.4	0	0.000	0.0
20101203 00:05	-8.1	-8.1	-8.1	90	-9.5	2	3	135	0.0	1009.4	0	0.000	0.0
20101203 00:10	-8.1	-8.1	-8.1	90	-9.5	0	0	-100000	0.0	1009.5	0	0.000	0.0
20101203 00:15	-8.1	-8.1	-8.1	90	-9.4	0	0	-100000	0.0	1009.5	0	0.000	0.0
20101203 00:20	-7.9	-7.9	-7.9	90	-9.3	0	0	-100000	0.0	1009.5	0	0.000	0.0
20101203 00:25	-7.9	-7.9	-7.9	90	-9.2	0	0	-100000	0.0	1009.4	0	0.000	0.0
20101203 00:30	-7.8	-7.8	-7.8	90	-9.2	0	0	-100000	0.0	1009.4	0	0.000	0.0
20101203 00:35	-7.8	-7.8	-7.8	90	-9.1	0	0	-100000	0.0	1009.5	0	0.000	0.0
20101203 00:40	-7.7	-7.7	-7.7	90	-9.0	0	0	-100000	0.0	1009.5	0	0.000	0.0
20101203 00:45	-7.6	-7.6	-7.6	90	-8.9	0	0	-100000	0.0	1009.6	0	0.000	0.0
20101203 00:50	-7.6	-7.6	-7.6	90	-9.0	0	3	135	0.0	1009.6	0	0.000	0.0
20101203 00:55	-7.7	-7.7	-7.7	90	-9.0	0	2	135	0.0	1009.3	0	0.000	0.0
20101203 01:00	-7.7	-7.7	-7.7	90	-9.1	0	0	-100000	0.0	1009.4	0	0.000	0.0
20101203 01:05	-7.7	-7.7	-7.7	90	-9.1	0	0	-100000	0.0	1009.4	0	0.000	0.0
20101203 01:10	-7.7	-7.7	-7.7	90	-9.1	0	0	-100000	0.0	1009.3	0	0.000	0.0
20101203 01:15	-7.8	-7.8	-7.8	90	-9.1	0	0	-100000	0.0	1009.2	0	0.000	0.0
20101203 01:20	-7.8	-7.8	-7.8	90	-9.1	0	0	-100000	0.0	1009.4	0	0.000	0.0
20101203 01:25	-7.8	-7.8	-7.8	89	-9.3	0	2	135	0.0	1009.2	0	0.000	0.0
20101203 01:30	-7.9	-7.9	-7.9	89	-9.4	0	2	135	0.0	1009.3	0	0.000	0.0
20101203 01:35	-7.9	-7.9	-7.9	89	-9.4	0	2	135	0.0	1009.3	0	0.000	0.0
20101203 01:40	-7.9	-7.9	-7.9	90	-9.3	0	0	-100000	0.0	1009.2	0	0.000	0.0
20101203 01:45	-7.9	-7.9	-7.9	90	-9.2	0	0	-100000	0.0	1009.1	0	0.000	0.0
20101203 01:50	-7.9	-7.9	-7.9	89	-9.4	0	0	-100000	0.0	1009.1	0	0.000	0.0
20101203 01:55	-8.0	-8.0	-8.0	89	-9.5	0	0	-100000	0.0	1009.2	0	0.000	0.0
20101203 02:00	-8.1	-8.1	-8.1	89	-9.6	0	0	-100000	0.0	1009.3	0	0.000	0.0
20101203 02:05	-8.1	-8.1	-8.1	90	-9.5	0	0	-100000	0.0	1009.8	0	0.000	0.0
20101203 02:10	-8.1	-8.1	-8.1	90	-9.4	0	0	-100000	0.0	1009.5	0	0.000	0.0
20101203 02:15	-7.9	-7.9	-7.9	90	-9.3	0	0	-100000	0.0	1009.4	0	0.000	0.0
20101203 02:20	-7.9	-7.9	-7.9	90	-9.2	0	0	-100000	0.0	1009.3	0	0.000	0.0
20101203 02:25	-7.8	-7.8	-7.8	90	-9.1	0	0	-100000	0.0	1009.2	0	0.000	0.0
20101203 02:30	-7.8	-7.8	-7.8	90	-9.1	0	0	-100000	0.0	1009.2	0	0.000	0.0
20101203 02:35	-7.7	-7.7	-7.7	90	-9.1	0	0	-100000	0.0	1009.3	0	0.000	0.0
20101203 02:40	-7.7	-7.7	-7.7	90	-9.0	0	2	135	0.0	1009.4	0	0.000	0.0
20101203 02:45	-7.6	-7.6	-7.6	90	-9.0	2	3	135	0.0	1009.3	0	0.000	0.0
20101203 02:50	-7.6	-7.6	-7.6	90	-9.0	0	3	135	0.0	1009.3	0	0.000	0.0
20101203 02:55	-7.6	-7.6	-7.6	90	-9.0	2	5	135	0.0	1009.2	0	0.000	0.0
20101203 03:00	-7.6	-7.6	-7.6	90	-9.0	2	5	135	0.0	1009.2	0	0.000	0.0
20101203 03:05	-7.6	-7.6	-7.6	90	-9.0	2	5	135	0.0	1009.1	0	0.000	0.0
20101203 03:10	-7.6	-7.6	-7.6	90	-8.9	3	6	135	0.0	1009.1	0	0.000	0.0
20101203 03:15	-7.5	-7.5	-7.5	90	-8.9	2	5	135	0.0	1009.2	0	0.000	0.0
20101203 03:20	-7.4	-7.4	-7.4	90	-8.8	0	0	-100000	0.0	1009.3	0	0.000	0.0
20101203 03:25	-7.4	-7.4	-7.4	90	-8.7	0	0	-100000	0.0	1009.3	0	0.000	0.0
20101203 03:30	-7.3	-7.3	-7.3	90	-8.7	0	0	-100000	0.0	1009.4	0	0.000	0.0
20101203 03:35	-7.4	-7.4	-7.4	90	-8.7	0	0	-100000	0.0	1009.3	0	0.000	0.0
20101203 03:40	-7.5	-7.5	-7.5	90	-8.9	0	0	-100000	0.0	1009.3	0	0.000	0.0
20101203 03:45	-7.6	-7.6	-7.6	90	-8.9	0	0	-100000	0.0	1009.2	0	0.000	0.0
20101203 03:50	-7.6	-7.6	-7.6	90	-8.9	0	0	-100000	0.0	1009.1	0	0.000	0.0
20101203 03:55	-7.4	-7.4	-7.4	90	-8.8	0	0	-100000	0.0	1009.0	0	0.000	0.0
20101203 04:00	-7.4	-7.4	-7.4	90	-8.7	0	0	-100000	0.0	1009.1	0	0.000	0.0
20101203 04:05	-7.3	-7.3	-7.3	91	-8.5	0	0	-100000	0.0	1009.1	0	0.000	0.0
20101203 04:10	-7.2	-7.2	-7.2	91	-8.4	0	0	-100000	0.0	1009.0	0	0.000	0.0
20101203 04:15	-7.2	-7.2	-7.2	90	-8.5	0	0	-100000	0.0	1009.0	0	0.000	0.0
20101203 04:20	-7.2	-7.2	-7.2	90	-8.6	0	3	135	0.0	1009.1	0	0.000	0.0
20101203 04:25	-7.3	-7.3	-7.3	90	-8.6	0	2	135	0.0	1009.3	0	0.000	0.0
20101203 04:30	-7.3	-7.3	-7.3	90	-8.7	0	0	-100000	0.0	1009.3	0	0.000	0.0
20101203 04:35	-7.3	-7.3	-7.3	90	-8.7	0	0	-100000	0.0	1009.3	0	0.000	0.0
20101203 04:40	-7.3	-7.3	-7.3	90	-8.6	0	0	-100000	0.0	1009.3	0	0.000	0.0
20101203 04:45	-7.2	-7.2	-7.2	90	-8.6	2	5	135	0.0	1009.3	0	0.000	0.0
20101203 04:50	-7.2	-7.2	-7.2	90	-8.5	3	5	135	0.0	1009.3	0	0.000	0.0
20101203 04:55	-7.1	-7.1	-7.1	90	-8.5	2	5	135	0.0	1009.2	0	0.000	0.0
20101203 05:00	-7.1	-7.1	-7.1	90	-8.5	2	5	135	0.0	1009.2	0	0.000	0.0
20101203 05:05	-7.1	-7.1	-7.1	90	-8.4	0	3	135	0.0	1009.3	0	0.000	0.0
20101203 05:10	-7.1	-7.1	-7.1	90	-8.5	0	2	135	0.0	1009.2	0	0.000	0.0
20101203 05:15	-7.2	-7.2	-7.2	90	-8.5	0	5	135	0.0	1009.2	0	0.000	0.0
20101203 05:20	-7.2	-7.2	-7.2	90	-8.6	0	2	135	0.0	1009.1	0	0.000	0.0
20101203 05:25	-7.2	-7.2	-7.2	90	-8.5	0	0	-100000	0.0	1009.0	0	0.000	0.0
20101203 05:30	-7.2	-7.2	-7.2	90	-8.5	2	6	135	0.0	1009.2	0	0.000	0.0
20101203 05:35	-7.1	-7.1	-7.1	90	-8.4	3	6	135	0.0	1009.2	0	0.000	0.0
20101203 05:40	-7.1	-7.1	-7.1	90	-8.4	5	8	315	0.0	1009.3	0	0.000	0.0
20101203 05:45	-7.0	-7.0	-7.0	90	-8.4	2	6	315	0.0	1009.5	0	0.000	0.0
20101203 05:50	-6.9	-6.9	-6.9	90	-8.3	0	3	315	0.0	1009.4	0	0.000	0.0
20101203 05:55	-6.8	-6.8	-6.8	90	-8.2	0	0	-100000	0.0	1009.3	0	0.000	0.0
20101203 06:00	-6.8	-6.8	-6.8	90	-8.2	2	5	315	0.0	1009.3	0	0.000	0.0
20101203 06:05	-6.8	-6.8	-6.8	90	-8.2	3	6	315	0.0	1009.6	0	0.000	0.0
20101203 06:10	-6.8	-6.8	-6.8	90	-8.2	3	6	315	0.0	1009.7	0	0.000	0.0
20101203 06:15	-6.7	-6.7	-6.7	91	-7.9	2	5	315	0.0	1009.7	0	0.000	0.0
20101203 06:20	-6.7	-6.7	-6.7	90	-8.1	3	6	315	0.0	1009.7	0	0.000	0.0
20101203 06:25	-6.7	-6.7	-6.7	90	-8.0	3	6	315	0.0	1009.6	0	0.000	0.0
20101203 06:30	-6.7	-6.7	-6.7	90	-8.1	2	5	315	0.0	1009.7	0	0.000	0.0
20101203 06:35	-6.7	-6.7	-6.7	90	-8.1	0	3	315	0.0	1009.7	0	0.000	0.0
20101203 06:40	-6.7	-6.7	-6.7	90	-8.0	0	2	315	0.0	1009.7	0	0.000	0.0
20101203 06:45	-6.6	-6.6	-6.6	90	-8.0	2	6	315	0.0	1009.8	0	0.000	0.0
20101203 06:50	-6.6	-6.6	-6.6	90	-8.0	5	6	315	0.0	1009.8	0	0.000	0.0
20101203 06:55	-6.6	-6.6	-6.6	90	-8.0	2	5	315	0.0	1009.8	0	0.000	0.0
20101203 07:00	-6.6	-6.6	-6.6	91	-7.8	3	6	315	0.0	1009.9	0	0.000	0.0
20101203 07:05	-6.6	-6.6	-6.6	91	-7.8	3	6	315	0.0	1010.0	0	0.000	0.0
20101203 07:10	-6.6	-6.6	-6.6	91	-7.8	3	6	315	0.0	1010.0	0	0.000	0.0
20101203 07:15	-6.5	-6.5	-6.5	91	-7.7	5	6	315	0.0	1010.0	0	0.000	0.0
20101203 07:20	-6.5	-6.5	-6.5	91	-7.7	5	6	315	0.0	1010.0	0	0.000	0.0
20101203 07:25	-6.4	-6.4	-6.4	91	-7.7	5	6	315	0.0	1010.0	0	0.000	0.0
20101203 07:30	-6.4	-6.4	-6.4	91	-7.7	3	6	315	0.0	1010.1	0	0.000	0.0
20101203 07:35	-6.4	-6.4	-6.4	91	-7.7	2	6	315	0.0	1010.0	0	0.000	0.0
20101203 07:40	-6.4	-6.4	-6.4	91	-7.6	3	5	315	0.0	1009.8	0	0.000	0.0
20101203 07:45	-6.4	-6.4	-6.4	91	-7.6	2	5	315	0.0	1009.9	0	0.000	0.0
20101203 07:50	-6.3	-6.3	-6.3	91	-7.6	2	3	315	0.0	1009.9	0	0.000	0.0
20101203 07:55	-6.3	-6.3	-6.3	91	-7.5	2	5	315	0.0	1009.9	0	0.000	0.0
20101203 08:00	-6.3	-6.3	-6.3	91	-7.5	0	5	315	0.0	1009.9	0	0.000	0.0
20101203 08:05	-6.2	-6.2	-6.2	91	-7.4	2	5	315	0.0	1010.0	0	0.000	0.0
20101203 08:10	-6.2	-6.2	-6.2	91	-7.4	2	3	315	0.0	1010.0	0	0.000	0.0
20101203 08:15	-6.1	-6.1	-6.1	91	-7.3	3	5	315	0.0	1010.0	0	0.000	0.0
20101203 08:20	-6.1	-6.1	-6.1	91	-7.3	2	5	315	0.0	1010.0	0	0.000	0.0
20101203 08:25	-6.0	-6.0	-6.0	91	-7.2	2	5	315	0.0	1010.1	0	0.000	0.0
20101203 08:30	-6.0	-6.0	-6.0	91	-7.2	3	6	315	0.0	1010.2	0	0.000	0.0
20101203 08:35	-5.9	-5.9	-5.9	91	-7.2	3	6	315	0.0	1010.1	5	0.000	0.0
20101203 08:40	-5.9	-5.9	-5.9	91	-7.2	5	6	315	0.0	1010.2	5	0.000	0.0
20101203 08:45	-5.9	-5.9	-5.9	91	-7.2	3	8	315	0.0	1010.3	6	0.000	0.0
20101203 08:50	-5.9	-5.9	-5.9	91	-7.1	0	3	315	0.0	1010.2	9	0.000	0.0
20101203 08:55	-5.8	-5.8	-5.8	91	-7.1	0	2	315	0.0	1010.2	10	0.000	0.0
20101203 09:00	-5.8	-5.8	-5.8	91	-7.0	0	3	315	0.0	1010.2	12	0.000	0.0
20101203 09:05	-5.7	-5.7	-5.7	91	-7.0	3	5	315	0.0	1010.4	12	0.000	0.0
20101203 09:10	-5.7	-5.7	-5.7	91	-6.9	2	5	315	0.0	1010.3	14	0.000	0.0
20101203 09:15	-5.6	-5.6	-5.6	91	-6.8	2	3	315	0.0	1010.3	15	0.000	0.0
20101203 09:20	-5.5	-5.5	-5.5	91	-6.7	2	3	315	0.0	1010.3	16	0.000	0.0
20101203 09:25	-5.4	-5.4	-5.4	91	-6.6	0	2	315	0.0	1010.3	17	0.000	0.0
20101203 09:30	-5.4	-5.4	-5.4	91	-6.7	0	2	315	0.0	1010.3	18	0.000	0.0
20101203 09:35	-5.4	-5.4	-5.4	91	-6.7	0	0	-100000	0.0	1010.3	17	0.000	0.0
20101203 09:40	-5.4	-5.4	-5.4	91	-6.6	0	0	-100000	0.0	1010.3	16	0.000	0.0
20101203 09:45	-5.4	-5.4	-5.4	91	-6.6	0	0	-100000	0.0	1010.3	16	0.000	0.0
20101203 09:50	-5.4	-5.4	-5.4	90	-6.8	2	5	315	0.0	1010.4	18	0.000	0.0
20101203 09:55	-5.4	-5.4	-5.4	90	-6.8	2	5	315	0.0	1010.3	18	0.000	0.0
20101203 10:00	-5.4	-5.4	-5.4	90	-6.8	0	2	315	0.0	1010.4	18	0.000	0.0
20101203 10:05	-5.3	-5.3	-5.3	90	-6.7	0	3	315	0.0	1010.5	18	0.000	0.0
20101203 10:10	-5.2	-5.2	-5.2	90	-6.6	0	5	315	0.0	1010.5	18	0.000	0.0
20101203 10:15	-5.2	-5.2	-5.2	90	-6.6	2	5	315	0.0	1010.5	18	0.000	0.0
20101203 10:20	-5.2	-5.2	-5.2	90	-6.5	0	0	-100000	0.0	1010.5	19	0.000	0.0
20101203 10:25	-5.2	-5.2	-5.2	90	-6.5	0	0	-100000	0.0	1010.6	19	0.000	0.0
20101203 10:30	-5.1	-5.1	-5.1	90	-6.5	0	2	315	0.0	1010.6	19	0.000	0.0
20101203 10:35	-5.2	-5.2	-5.2	89	-6.7	2	6	315	0.0	1010.5	19	0.000	0.0
20101203 10:40	-5.2	-5.2	-5.2	90	-6.5	0	0	-100000	0.0	1010.5	21	0.000	0.0
20101203 10:45	-5.1	-5.1	-5.1	90	-6.4	0	0	-100000	0.0	1010.3	21	0.000	0.0
20101203 10:50	-5.0	-5.0	-5.0	90	-6.4	0	0	-100000	0.0	1010.3	22	0.000	0.0
20101203 10:55	-5.1	-5.1	-5.1	89	-6.6	0	0	-100000	0.0	1010.3	24	0.000	0.0
20101203 11:00	-5.1	-5.1	-5.1	89	-6.6	0	2	315	0.0	1010.3	25	0.000	0.0
20101203 11:05	-5.1	-5.1	-5.1	89	-6.6	2	3	315	0.0	1010.3	25	0.000	0.0
20101203 11:10	-5.1	-5.1	-5.1	89	-6.6	3	6	315	0.0	1010.2	26	0.000	0.0
20101203 11:15	-5.1	-5.1	-5.1	89	-6.6	2	5	315	0.0	1010.0	28	0.000	0.0
20101203 11:20	-5.1	-5.1	-5.1	89	-6.6	0	3	315	0.0	1010.0	27	0.000	0.0
20101203 11:25	-5.0	-5.0	-5.0	89	-6.5	0	3	315	0.0	1010.1	26	0.000	0.0
20101203 11:30	-4.9	-4.9	-4.9	89	-6.4	0	2	315	0.0	1010.1	26	0.000	0.0
20101203 11:35	-4.8	-4.8	-4.8	89	-6.4	0	2	315	0.0	1010.1	28	0.000	0.0
20101203 11:40	-4.9	-4.9	-4.9	89	-6.4	0	3	315	0.0	1010.1	28	0.000	0.0
20101203 11:45	-4.9	-4.9	-4.9	89	-6.5	0	3	315	0.0	1010.1	28	0.000	0.0
20101203 11:50	-4.9	-4.9	-4.9	89	-6.5	0	2	315	0.0	1010.0	28	0.000	0.0
20101203 11:55	-4.9	-4.9	-4.9	89	-6.5	2	3	315	0.0	1009.9	28	0.000	0.0
20101203 12:00	-4.9	-4.9	-4.9	89	-6.5	0	3	315	0.0	1009.9	30	0.000	0.0
20101203 12:05	-4.8	-4.8	-4.8	89	-6.4	3	6	315	0.0	1009.8	32	0.000	0.0
20101203 12:10	-4.7	-4.7	-4.7	89	-6.3	2	5	315	0.0	1009.6	35	0.000	0.0
20101203 12:15	-4.7	-4.7	-4.7	89	-6.2	2	3	315	0.0	1009.5	36	0.000	0.0
20101203 12:20	-4.5	-4.5	-4.5	89	-6.0	0	3	315	0.0	1009.4	36	0.000	0.0
20101203 12:25	-4.3	-4.3	-4.3	89	-5.9	2	5	315	0.0	1009.4	37	0.000	0.0
20101203 12:30	-4.3	-4.3	-4.3	88	-6.0	0	3	315	0.0	1009.5	35	0.000	0.0
20101203 12:35	-4.4	-4.4	-4.4	88	-6.1	2	6	315	0.0	1009.5	35	0.000	0.0
20101203 12:40	-4.6	-4.6	-4.6	88	-6.3	2	3	315	0.0	1009.5	35	0.000	0.0
20101203 12:45	-4.7	-4.7	-4.7	88	-6.4	3	5	315	0.0	1009.4	33	0.000	0.0
20101203 12:50	-4.7	-4.7	-4.7	89	-6.3	3	5	315	0.0	1009.4	29	0.000	0.0
20101203 12:55	-4.8	-4.8	-4.8	89	-6.3	2	3	315	0.0	1009.5	28	0.000	0.0
20101203 13:00	-4.8	-4.8	-4.8	89	-6.3	2	5	315	0.0	1009.5	31	0.000	0.0
20101203 13:05	-4.8	-4.8	-4.8	89	-6.4	2	5	315	0.0	1009.4	32	0.000	0.0
20101203 13:10	-4.9	-4.9	-4.9	89	-6.5	2	3	315	0.0	1009.5	32	0.000	0.0
20101203 13:15	-4.9	-4.9	-4.9	89	-6.5	2	5	315	0.0	1009.5	31	0.000	0.0
20101203 13:20	-5.1	-5.1	-5.1	89	-6.6	2	3	315	0.0	1009.4	30	0.000	0.0
20101203 13:25	-5.1	-5.1	-5.1	89	-6.6	0	2	315	0.0	1009.4	28	0.000	0.0
20101203 13:30	-4.9	-4.9	-4.9	90	-6.3	0	0	-100000	0.0	1009.4	27	0.000	0.0
20101203 13:35	-4.9	-4.9	-4.9	90	-6.3	0	3	315	0.0	1009.4	26	0.000	0.0
20101203 13:40	-4.8	-4.8	-4.8	90	-6.2	0	2	315	0.0	1009.5	25	0.000	0.0
20101203 13:45	-4.7	-4.7	-4.7	90	-6.1	0	0	-100000	0.0	1009.6	24	0.000	0.0
20101203 13:50	-4.7	-4.7	-4.7	90	-6.1	0	3	315	0.0	1009.7	22	0.000	0.0
20101203 13:55	-4.7	-4.7	-4.7	89	-6.3	0	3	315	0.0	1009.6	21	0.000	0.0
20101203 14:00	-4.8	-4.8	-4.8	89	-6.3	0	2	315	0.0	1009.6	20	0.000	0.0
20101203 14:05	-4.8	-4.8	-4.8	89	-6.3	0	3	315	0.0	1009.7	18	0.000	0.0
20101203 14:10	-4.8	-4.8	-4.8	89	-6.3	0	5	315	0.0	1009.7	20	0.000	0.0
20101203 14:15	-4.8	-4.8	-4.8	89	-6.3	0	3	315	0.0	1009.7	21	0.000	0.0
20101203 14:20	-4.7	-4.7	-4.7	90	-6.1	0	0	-100000	0.0	1009.5	21	0.000	0.0
20101203 14:25	-4.8	-4.8	-4.8	89	-6.4	0	3	315	0.0	1009.8	19	0.000	0.0
20101203 14:30	-4.8	-4.8	-4.8	89	-6.4	0	3	315	0.0	1009.8	18	0.000	0.0
20101203 14:35	-4.9	-4.9	-4.9	89	-6.5	2	5	315	0.0	1009.8	18	0.000	0.0
20101203 14:40	-5.0	-5.0	-5.0	89	-6.5	2	5	315	0.0	1009.7	19	0.000	0.0
20101203 14:45	-4.9	-4.9	-4.9	90	-6.3	0	5	315	0.0	1009.8	23	0.000	0.0
20101203 14:50	-4.9	-4.9	-4.9	90	-6.3	2	5	315	0.0	1010.0	24	0.000	0.0
20101203 14:55	-4.8	-4.8	-4.8	90	-6.2	0	2	315	0.0	1010.0	25	0.000	0.0
20101203 15:00	-4.8	-4.8	-4.8	90	-6.2	0	5	315	0.0	1010.2	22	0.000	0.0
20101203 15:05	-4.8	-4.8	-4.8	89	-6.4	2	5	315	0.0	1010.1	20	0.000	0.0
20101203 15:10	-4.9	-4.9	-4.9	90	-6.3	2	5	315	0.0	1010.2	18	0.000	0.0
20101203 15:15	-4.9	-4.9	-4.9	90	-6.3	2	5	315	0.0	1010.3	16	0.000	0.0
20101203 15:20	-5.1	-5.1	-5.1	89	-6.6	2	5	315	0.0	1010.4	14	0.000	0.0
20101203 15:25	-5.1	-5.1	-5.1	90	-6.4	0	3	315	0.0	1010.5	12	0.000	0.0
20101203 15:30	-5.1	-5.1	-5.1	90	-6.4	0	0	-100000	0.0	1010.5	11	0.000	0.0
20101203 15:35	-5.1	-5.1	-5.1	90	-6.4	2	3	315	0.0	1010.4	8	0.000	0.0
20101203 15:40	-5.2	-5.2	-5.2	89	-6.7	0	0	-100000	0.0	1010.6	7	0.000	0.0
20101203 15:45	-5.2	-5.2	-5.2	90	-6.6	2	5	315	0.0	1010.6	5	0.000	0.0
20101203 15:50	-5.2	-5.2	-5.2	90	-6.6	2	5	315	0.0	1010.7	1	0.000	0.0
20101203 15:55	-5.3	-5.3	-5.3	90	-6.7	0	2	315	0.0	1010.8	0	0.000	0.0
20101203 16:00	-5.3	-5.3	-5.3	90	-6.7	0	5	315	0.0	1010.9	0	0.000	0.0
20101203 16:05	-5.3	-5.3	-5.3	90	-6.7	0	2	315	0.0	1010.9	0	0.000	0.0
20101203 16:10	-5.4	-5.4	-5.4	90	-6.8	0	0	-100000	0.0	1011.0	0	0.000	0.0
20101203 16:15	-5.3	-5.3	-5.3	90	-6.7	0	2	315	0.0	1011.0	0	0.000	0.0
20101203 16:20	-5.3	-5.3	-5.3	90	-6.7	0	5	315	0.0	1011.2	0	0.000	0.0
20101203 16:25	-5.3	-5.3	-5.3	90	-6.7	2	5	315	0.0	1011.3	0	0.000	0.0
20101203 16:30	-5.3	-5.3	-5.3	90	-6.7	0	3	315	0.0	1011.3	0	0.000	0.0
20101203 16:35	-5.4	-5.4	-5.4	90	-6.8	0	3	315	0.0	1011.4	0	0.000	0.0
20101203 16:40	-5.4	-5.4	-5.4	90	-6.8	3	5	315	0.0	1011.6	0	0.000	0.0
20101203 16:45	-5.6	-5.6	-5.6	90	-6.9	2	3	315	0.0	1011.6	0	0.000	0.0
20101203 16:50	-5.6	-5.6	-5.6	90	-7.0	0	0	-100000	0.0	1011.6	0	0.000	0.0
20101203 16:55	-5.7	-5.7	-5.7	90	-7.0	0	0	-100000	0.0	1011.8	0	0.000	0.0
20101203 17:00	-5.7	-5.7	-5.7	90	-7.1	0	0	-100000	0.0	1011.7	0	0.000	0.0
20101203 17:05	-5.7	-5.7	-5.7	90	-7.1	0	0	-100000	0.0	1011.6	0	0.000	0.0
20101203 17:10	-5.7	-5.7	-5.7	91	-7.0	0	0	-100000	0.0	1011.7	0	0.000	0.0
20101203 17:15	-5.7	-5.7	-5.7	91	-6.9	2	5	315	0.0	1011.8	0	0.000	0.0
20101203 17:20	-5.7	-5.7	-5.7	91	-7.0	0	2	315	0.0	1012.0	0	0.000	0.0
20101203 17:25	-5.8	-5.8	-5.8	91	-7.0	0	0	-100000	0.0	1012.1	0	0.000	0.0
20101203 17:30	-5.8	-5.8	-5.8	91	-7.0	0	0	-100000	0.0	1012.2	0	0.000	0.0
20101203 17:35	-5.8	-5.8	-5.8	91	-7.0	0	0	-100000	0.0	1012.4	0	0.000	0.0
20101203 17:40	-5.8	-5.8	-5.8	91	-7.0	0	2	315	0.0	1012.4	0	0.000	0.0
20101203 17:45	-5.8	-5.8	-5.8	91	-7.0	2	5	315	0.0	1012.6	0	0.000	0.0
20101203 17:50	-5.8	-5.8	-5.8	91	-7.0	2	3	315	0.0	1012.5	0	0.000	0.0
20101203 17:55	-5.8	-5.8	-5.8	91	-7.0	0	0	-100000	0.0	1012.6	0	0.000	0.0
20101203 18:00	-5.7	-5.7	-5.7	91	-7.0	0	0	-100000	0.0	1012.6	0	0.000	0.0
20101203 18:05	-5.7	-5.7	-5.7	91	-7.0	0	0	-100000	0.0	1012.7	0	0.000	0.0
20101203 18:10	-5.7	-5.7	-5.7	91	-7.0	0	0	-100000	0.0	1012.7	0	0.000	0.0
20101203 18:15	-5.8	-5.8	-5.8	91	-7.0	0	2	315	0.0	1012.8	0	0.000	0.0
20101203 18:20	-5.8	-5.8	-5.8	91	-7.0	2	5	315	0.0	1012.8	0	0.000	0.0
20101203 18:25	-5.8	-5.8	-5.8	91	-7.0	2	5	315	0.0	1012.9	0	0.000	0.0
20101203 18:30	-5.8	-5.8	-5.8	91	-7.1	0	0	-100000	0.0	1013.1	0	0.000	0.0
20101203 18:35	-5.8	-5.8	-5.8	91	-7.0	0	3	315	0.0	1013.2	0	0.000	0.0
20101203 18:40	-5.8	-5.8	-5.8	91	-7.0	0	0	-100000	0.0	1013.2	0	0.000	0.0
20101203 18:45	-5.8	-5.8	-5.8	91	-7.0	0	2	315	0.0	1013.3	0	0.000	0.0
20101203 18:50	-5.7	-5.7	-5.7	91	-7.0	2	5	315	0.0	1013.4	0	0.000	0.0
20101203 18:55	-5.8	-5.8	-5.8	91	-7.1	0	3	315	0.0	1013.5	0	0.000	0.0
20101203 19:00	-5.8	-5.8	-5.8	91	-7.1	0	5	315	0.0	1013.4	0	0.000	0.0
20101203 19:05	-5.8	-5.8	-5.8	91	-7.1	2	3	315	0.0	1013.5	0	0.000	0.0
20101203 19:10	-5.8	-5.8	-5.8	91	-7.1	2	5	315	0.0	1013.6	0	0.000	0.0
20101203 19:15	-5.9	-5.9	-5.9	91	-7.1	2	3	315	0.0	1013.7	0	0.000	0.0
20101203 19:20	-5.9	-5.9	-5.9	91	-7.1	0	3	315	0.0	1013.8	0	0.000	0.0
20101203 19:25	-5.9	-5.9	-5.9	91	-7.1	0	0	-100000	0.0	1013.9	0	0.000	0.0
20101203 19:30	-5.8	-5.8	-5.8	91	-7.1	0	2	315	0.0	1014.0	0	0.000	0.0
20101203 19:35	-5.8	-5.8	-5.8	91	-7.0	0	0	-100000	0.0	1014.1	0	0.000	0.0
20101203 19:40	-5.7	-5.7	-5.7	91	-7.0	0	0	-100000	0.0	1014.1	0	0.000	0.0
20101203 19:45	-5.7	-5.7	-5.7	91	-6.9	0	0	-100000	0.0	1014.1	0	0.000	0.0
20101203 19:50	-5.7	-5.7	-5.7	91	-6.9	0	0	-100000	0.0	1014.1	0	0.000	0.0
20101203 19:55	-5.6	-5.6	-5.6	91	-6.8	0	0	-100000	0.0	1014.3	0	0.000	0.0
20101203 20:00	-5.6	-5.6	-5.6	91	-6.8	0	0	-100000	0.0	1014.3	0	0.000	0.0
20101203 20:05	-5.5	-5.5	-5.5	91	-6.7	0	0	-100000	0.0	1014.4	0	0.000	0.0
20101203 20:10	-5.5	-5.5	-5.5	91	-6.7	0	0	-100000	0.0	1014.4	0	0.000	0.0
20101203 20:15	-5.5	-5.5	-5.5	91	-6.7	0	0	-100000	0.0	1014.5	0	0.000	0.0
20101203 20:20	-5.5	-5.5	-5.5	91	-6.7	0	3	315	0.0	1014.5	0	0.000	0.0
20101203 20:25	-5.6	-5.6	-5.6	90	-6.9	0	2	315	0.0	1014.6	0	0.000	0.0
20101203 20:30	-5.7	-5.7	-5.7	90	-7.0	0	0	-100000	0.0	1014.7	0	0.000	0.0
20101203 20:35	-5.8	-5.8	-5.8	90	-7.1	0	0	-100000	0.0	1014.7	0	0.000	0.0
20101203 20:40	-5.8	-5.8	-5.8	91	-7.0	0	0	-100000	0.0	1014.8	0	0.000	0.0
20101203 20:45	-5.7	-5.7	-5.7	91	-7.0	0	0	-100000	0.0	1014.9	0	0.000	0.0
20101203 20:50	-5.7	-5.7	-5.7	91	-6.9	0	0	-100000	0.0	1015.0	0	0.000	0.0
20101203 20:55	-5.6	-5.6	-5.6	91	-6.8	0	0	-100000	0.0	1015.1	0	0.000	0.0
20101203 21:00	-5.6	-5.6	-5.6	91	-6.8	0	0	-100000	0.0	1015.1	0	0.000	0.0
20101203 21:05	-5.5	-5.5	-5.5	91	-6.7	0	0	-100000	0.0	1015.2	0	0.000	0.0
20101203 21:10	-5.5	-5.5	-5.5	91	-6.7	0	0	-100000	0.0	1015.2	0	0.000	0.0
20101203 21:15	-5.4	-5.4	-5.4	91	-6.7	0	2	315	0.0	1015.3	0	0.000	0.0
20101203 21:20	-5.5	-5.5	-5.5	91	-6.7	2	3	315	0.0	1015.4	0	0.000	0.0
20101203 21:25	-5.6	-5.6	-5.6	91	-6.8	0	0	-100000	0.0	1015.4	0	0.000	0.0
20101203 21:30	-5.6	-5.6	-5.6	91	-6.8	0	0	-100000	0.0	1015.5	0	0.000	0.0
20101203 21:35	-5.6	-5.6	-5.6	91	-6.8	0	2	315	0.0	1015.6	0	0.000	0.0
20101203 21:40	-5.6	-5.6	-5.6	91	-6.8	0	2	315	0.0	1015.8	0	0.000	0.0
20101203 21:45	-5.6	-5.6	-5.6	91	-6.8	2	3	315	0.0	1015.8	0	0.000	0.0
20101203 21:50	-5.6	-5.6	-5.6	91	-6.8	3	6	315	0.0	1015.8	0	0.000	0.0
20101203 21:55	-5.6	-5.6	-5.6	91	-6.8	3	5	338	0.0	1016.0	0	0.000	0.0
20101203 22:00	-5.6	-5.6	-5.6	91	-6.8	2	5	338	0.0	1016.1	0	0.000	0.0
20101203 22:05	-5.7	-5.7	-5.7	91	-6.9	0	3	338	0.0	1016.1	0	0.000	0.0
20101203 22:10	-5.7	-5.7	-5.7	91	-6.9	0	2	338	0.0	1016.2	0	0.000	0.0
20101203 22:15	-5.7	-5.7	-5.7	91	-6.9	0	0	-100000	0.0	1016.2	0	0.000	0.0
20101203 22:20	-5.7	-5.7	-5.7	91	-6.9	0	0	-100000	0.0	1016.2	0	0.000	0.0
20101203 22:25	-5.7	-5.7	-5.7	91	-6.9	0	2	338	0.0	1016.3	0	0.000	0.0
20101203 22:30	-5.7	-5.7	-5.7	91	-6.9	0	3	338	0.0	1016.4	0	0.000	0.0
20101203 22:35	-5.7	-5.7	-5.7	91	-6.9	3	6	338	0.0	1016.4	0	0.000	0.0
20101203 22:40	-5.7	-5.7	-5.7	91	-6.9	0	3	338	0.0	1016.4	0	0.000	0.0
20101203 22:45	-5.7	-5.7	-5.7	91	-6.9	0	2	338	0.0	1016.5	0	0.000	0.0
20101203 22:50	-5.7	-5.7	-5.7	91	-6.9	0	5	338	0.0	1016.6	0	0.000	0.0
20101203 22:55	-5.7	-5.7	-5.7	91	-6.9	0	0	-100000	0.0	1016.6	0	0.000	0.0
20101203 23:00	-5.7	-5.7	-5.7	91	-6.9	0	0	-100000	0.0	1016.6	0	0.000	0.0
20101203 23:05	-5.7	-5.7	-5.7	91	-6.9	0	0	-100000	0.0	1016.7	0	0.000	0.0
20101203 23:10	-5.6	-5.6	-5.6	91	-6.8	0	3	338	0.0	1016.7	0	0.000	0.0
20101203 23:15	-5.6	-5.6	-5.6	91	-6.8	0	0	-100000	0.0	1016.8	0	0.000	0.0
20101203 23:20	-5.6	-5.6	-5.6	91	-6.8	0	0	-100000	0.0	1016.8	0	0.000	0.0
20101203 23:25	-5.6	-5.6	-5.6	90	-6.9	0	0	-100000	0.0	1016.9	0	0.000	0.0
20101203 23:30	-5.5	-5.5	-5.5	91	-6.7	0	0	-100000	0.0	1016.9	0	0.000	0.0
20101203 23:35	-5.4	-5.4	-5.4	90	-6.8	0	0	-100000	0.0	1016.9	0	0.000	0.0
20101203 23:40	-5.4	-5.4	-5.4	90	-6.8	0	0	-100000	0.0	1016.9	0	0.000	0.0
20101203 23:45	-5.4	-5.4	-5.4	90	-6.8	0	0	-100000	0.0	1016.9	0	0.000	0.0
20101203 23:50	-5.4	-5.4	-5.4	90	-6.8	0	0	-100000	0.0	1017.0	0	0.000	0.0
20101203 23:55	-5.3	-5.3	-5.3	90	-6.7	0	0	-100000	0.0	1017.1	0	0.000	0.0



Please note the license to use and transfer of this data:
http://creativecommons.org/licenses/by-nc-sa/3.0/deed.en

Bitte beachten sie die Lizenz zur Verwertung und Weitergabe der Daten:
http://creativecommons.org/licenses/by-nc-sa/3.0/deed.de

zurück zur Übersicht der Archivdaten (Monats und Tagesdaten)

Cookies helfen bei der Bereitstellung von Inhalten. Durch die Nutzung dieser Seiten erklärst du dich damit einverstanden, dass Cookies auf deinem Rechner gespeichert werden. Weitere Information